Time;durP1;ratioP1;P1;durP2;ratioP2;P2;SDS_P1;SDS_P2;PMS_P1;PMS_P2;Temp;Humidity;BMP_temperature;BMP_pressure;BME280_temperature;BME280_humidity;BME280_pressure;Samples;Min_cycle;Max_cycle;Signal;HPM_P1;HPM_P2
2022/09/11 00:00:56;;;;;;;;;11.00;8.50;;;;;;;;5007559;28;8829;-77
2022/09/11 00:03:26;;;;;;;;;7.00;6.75;;;;;;;;5017861;28;9018;-76
2022/09/11 00:05:54;;;;;;;;;9.00;9.00;;;;;;;;5026220;28;8899;-77
2022/09/11 00:08:22;;;;;;;;;8.50;8.50;;;;;;;;5026252;28;8869;-77
2022/09/11 00:10:49;;;;;;;;;10.50;10.50;;;;;;;;5025831;28;8944;-77
2022/09/11 00:13:20;;;;;;;;;4.25;4.25;;;;;;;;5022983;28;8851;-77
2022/09/11 00:15:48;;;;;;;;;7.00;6.25;;;;;;;;5018260;28;8868;-78
2022/09/11 00:18:20;;;;;;;;;6.50;6.50;;;;;;;;5026005;28;8889;-78
2022/09/11 00:20:51;;;;;;;;;10.50;10.50;;;;;;;;5024279;28;8857;-78
2022/09/11 00:23:19;;;;;;;;;9.00;9.00;;;;;;;;5026028;28;8867;-77
2022/09/11 00:25:46;;;;;;;;;10.00;10.00;;;;;;;;5024224;28;8853;-78
2022/09/11 00:28:15;;;;;;;;;6.00;6.00;;;;;;;;5025770;28;8882;-78
2022/09/11 00:30:43;;;;;;;;;9.00;9.00;;;;;;;;5025957;28;8892;-78
2022/09/11 00:33:11;;;;;;;;;11.00;11.00;;;;;;;;5005191;28;8920;-78
2022/09/11 00:35:39;;;;;;;;;12.00;12.00;;;;;;;;5026150;28;8891;-78
2022/09/11 00:38:08;;;;;;;;;8.00;8.00;;;;;;;;5024753;28;8894;-77
2022/09/11 00:40:44;;;;;;;;;7.00;7.00;;;;;;;;5025550;28;8865;-78
2022/09/11 00:43:11;;;;;;;;;9.50;9.50;;;;;;;;5025133;28;8861;-79
2022/09/11 00:45:38;;;;;;;;;5.25;5.25;;;;;;;;5007399;28;8880;-79
2022/09/11 00:48:07;;;;;;;;;10.75;10.75;;;;;;;;5040681;28;9645;-80
2022/09/11 00:50:34;;;;;;;;;6.75;6.75;;;;;;;;5018984;28;8892;-79
2022/09/11 00:53:06;;;;;;;;;9.50;8.50;;;;;;;;5025293;28;8898;-79
2022/09/11 00:55:37;;;;;;;;;6.75;6.75;;;;;;;;5024427;28;8887;-80
2022/09/11 00:58:06;;;;;;;;;7.00;5.00;;;;;;;;5025806;28;8911;-80
2022/09/11 01:00:34;;;;;;;;;8.00;8.00;;;;;;;;5023824;28;8784;-79
2022/09/11 01:03:03;;;;;;;;;8.75;6.25;;;;;;;;5007157;28;9721;-79
2022/09/11 01:05:33;;;;;;;;;6.50;6.50;;;;;;;;5025335;28;8884;-79
2022/09/11 01:08:02;;;;;;;;;7.25;7.25;;;;;;;;5006584;28;8877;-80
2022/09/11 01:10:42;;;;;;;;;7.50;7.50;;;;;;;;5025674;28;8901;-79
2022/09/11 01:13:13;;;;;;;;;8.50;8.50;;;;;;;;5016455;28;8969;-80
2022/09/11 01:15:46;;;;;;;;;7.00;7.00;;;;;;;;5024652;28;9650;-79
2022/09/11 01:18:18;;;;;;;;;7.25;7.25;;;;;;;;5024989;28;8856;-78
2022/09/11 01:21:03;;;;;;;;;6.75;6.75;;;;;;;;5023898;28;8886;-78
2022/09/11 01:23:49;;;;;;;;;6.75;6.00;;;;;;;;5024278;28;9648;-78
2022/09/11 01:26:38;;;;;;;;;7.00;7.00;;;;;;;;5024256;28;8969;-78
2022/09/11 01:29:16;;;;;;;;;10.00;7.75;;;;;;;;5025490;28;9643;-77
2022/09/11 01:31:57;;;;;;;;;9.75;9.75;;;;;;;;5024160;28;9527;-78
2022/09/11 01:34:28;;;;;;;;;8.25;8.25;;;;;;;;5023671;28;8860;-78
2022/09/11 01:37:01;;;;;;;;;9.00;9.00;;;;;;;;5024806;28;8874;-78
2022/09/11 01:39:32;;;;;;;;;9.33;9.33;;;;;;;;5024218;28;8872;-78
2022/09/11 01:42:04;;;;;;;;;9.75;9.75;;;;;;;;5024262;28;9052;-77
2022/09/11 01:44:36;;;;;;;;;12.33;10.33;;;;;;;;5006315;28;8884;-78
2022/09/11 01:47:05;;;;;;;;;10.75;9.50;;;;;;;;5022503;28;8990;-78
2022/09/11 01:49:35;;;;;;;;;11.50;10.50;;;;;;;;5024879;28;8853;-78
2022/09/11 01:52:07;;;;;;;;;16.00;12.33;;;;;;;;5023456;28;8865;-78
2022/09/11 01:54:41;;;;;;;;;14.33;12.33;;;;;;;;5024657;28;8967;-78
2022/09/11 01:57:13;;;;;;;;;10.00;10.00;;;;;;;;5023370;28;9035;-78
2022/09/11 01:59:46;;;;;;;;;11.00;11.00;;;;;;;;5021682;28;8883;-78
2022/09/11 02:02:16;;;;;;;;;13.00;13.00;;;;;;;;5023436;28;8815;-79
2022/09/11 02:04:48;;;;;;;;;13.50;12.25;;;;;;;;5021751;28;8979;-80
2022/09/11 02:07:18;;;;;;;;;14.00;14.00;;;;;;;;5019918;28;8918;-80
2022/09/11 02:09:50;;;;;;;;;11.25;11.25;;;;;;;;5022996;28;8865;-79
2022/09/11 02:12:20;;;;;;;;;11.25;11.25;;;;;;;;5023904;28;8877;-80
2022/09/11 02:14:50;;;;;;;;;10.50;10.50;;;;;;;;5023395;28;8902;-79
2022/09/11 02:17:24;;;;;;;;;12.75;11.25;;;;;;;;5022854;28;8865;-79
2022/09/11 02:19:52;;;;;;;;;11.50;11.25;;;;;;;;5024189;28;8841;-79
2022/09/11 02:22:19;;;;;;;;;10.50;10.50;;;;;;;;5022371;28;8871;-79
2022/09/11 02:24:46;;;;;;;;;10.67;10.00;;;;;;;;5024601;28;8872;-79
2022/09/11 02:27:17;;;;;;;;;9.50;9.50;;;;;;;;5022017;28;8963;-79
2022/09/11 02:29:45;;;;;;;;;8.75;8.75;;;;;;;;5003770;28;8987;-78
2022/09/11 02:32:14;;;;;;;;;11.50;9.75;;;;;;;;5021533;28;8833;-78
2022/09/11 02:34:44;;;;;;;;;10.50;10.50;;;;;;;;5004920;28;8888;-78
2022/09/11 02:37:19;;;;;;;;;11.67;11.67;;;;;;;;5023379;28;8860;-79
2022/09/11 02:40:04;;;;;;;;;10.00;10.00;;;;;;;;5022901;28;8968;-79
2022/09/11 02:42:44;;;;;;;;;12.00;12.00;;;;;;;;5014052;28;8951;-78
2022/09/11 02:45:22;;;;;;;;;9.00;9.00;;;;;;;;5023744;28;8928;-79
2022/09/11 02:47:58;;;;;;;;;12.00;11.33;;;;;;;;5022281;28;9086;-79
2022/09/11 02:50:32;;;;;;;;;11.33;11.00;;;;;;;;5012135;28;8963;-79
2022/09/11 02:53:06;;;;;;;;;14.67;14.33;;;;;;;;5021850;28;9024;-78
2022/09/11 02:55:43;;;;;;;;;9.00;9.00;;;;;;;;5020790;28;9065;-78
2022/09/11 02:58:15;;;;;;;;;10.67;9.00;;;;;;;;5022862;28;9084;-78
2022/09/11 03:00:46;;;;;;;;;11.00;11.00;;;;;;;;5022351;28;8911;-77
2022/09/11 03:03:15;;;;;;;;;11.00;11.00;;;;;;;;5007304;28;9091;-79
2022/09/11 03:05:43;;;;;;;;;13.67;13.67;;;;;;;;5016815;28;9035;-80
2022/09/11 03:08:10;;;;;;;;;11.00;10.33;;;;;;;;5012169;28;9826;-79
2022/09/11 03:10:38;;;;;;;;;12.33;11.00;;;;;;;;5022285;28;8966;-78
2022/09/11 03:13:06;;;;;;;;;11.00;10.00;;;;;;;;5023564;28;8958;-78
2022/09/11 03:15:33;;;;;;;;;9.00;9.00;;;;;;;;5022325;28;9072;-78
2022/09/11 03:18:00;;;;;;;;;11.33;9.33;;;;;;;;5022272;28;9046;-78
2022/09/11 03:20:29;;;;;;;;;11.00;9.00;;;;;;;;5024023;28;8967;-79
2022/09/11 03:22:56;;;;;;;;;10.00;9.67;;;;;;;;5022323;28;9052;-79
2022/09/11 03:25:27;;;;;;;;;11.67;10.00;;;;;;;;5022863;28;9837;-78
2022/09/11 03:27:54;;;;;;;;;10.00;9.33;;;;;;;;5022712;28;9012;-78
2022/09/11 03:30:21;;;;;;;;;6.33;6.00;;;;;;;;5022770;28;9679;-78
2022/09/11 03:32:48;;;;;;;;;8.67;8.67;;;;;;;;5022314;28;8983;-78
2022/09/11 03:35:16;;;;;;;;;9.33;9.00;;;;;;;;5022387;28;8959;-79
2022/09/11 03:37:46;;;;;;;;;10.33;8.67;;;;;;;;5023015;28;9037;-79
2022/09/11 03:40:13;;;;;;;;;10.00;10.00;;;;;;;;5020248;28;9159;-78
2022/09/11 03:42:41;;;;;;;;;9.33;9.33;;;;;;;;5022434;28;9038;-79
2022/09/11 03:45:09;;;;;;;;;5.67;4.67;;;;;;;;5022247;28;9875;-79
2022/09/11 03:47:36;;;;;;;;;9.67;9.67;;;;;;;;5052477;28;9103;-78
2022/09/11 03:50:04;;;;;;;;;12.33;9.00;;;;;;;;5021937;28;9100;-79
2022/09/11 03:52:31;;;;;;;;;10.00;10.00;;;;;;;;5022806;28;9314;-78
2022/09/11 03:55:00;;;;;;;;;10.00;10.00;;;;;;;;5021992;28;9963;-78
2022/09/11 03:57:27;;;;;;;;;9.00;9.00;;;;;;;;5021185;28;9285;-78
2022/09/11 03:59:55;;;;;;;;;14.00;10.00;;;;;;;;5022330;28;9094;-79
2022/09/11 04:02:23;;;;;;;;;11.67;11.67;;;;;;;;5020897;28;9234;-79
2022/09/11 04:04:50;;;;;;;;;12.00;12.00;;;;;;;;5023173;28;9359;-79
2022/09/11 04:07:18;;;;;;;;;12.67;11.00;;;;;;;;5020786;28;9306;-78
2022/09/11 04:09:46;;;;;;;;;13.33;12.33;;;;;;;;5022218;28;9212;-79
2022/09/11 04:12:15;;;;;;;;;10.33;10.33;;;;;;;;5021620;28;9308;-78
2022/09/11 04:14:43;;;;;;;;;11.33;10.67;;;;;;;;5020493;28;9293;-78
2022/09/11 04:17:10;;;;;;;;;9.00;9.00;;;;;;;;5022526;28;9205;-78
2022/09/11 04:19:37;;;;;;;;;8.67;8.67;;;;;;;;5021375;28;9243;-78
2022/09/11 04:22:04;;;;;;;;;13.00;13.00;;;;;;;;5022359;28;10051;-78
2022/09/11 04:24:32;;;;;;;;;11.00;11.00;;;;;;;;5007398;28;9295;-78
2022/09/11 04:27:00;;;;;;;;;10.00;9.33;;;;;;;;5024490;28;9446;-77
2022/09/11 04:29:28;;;;;;;;;11.00;9.67;;;;;;;;5026059;28;10322;-78
2022/09/11 04:31:56;;;;;;;;;8.00;8.00;;;;;;;;5024509;28;9064;-79
2022/09/11 04:34:25;;;;;;;;;11.67;11.67;;;;;;;;5025999;28;9019;-77
2022/09/11 04:36:54;;;;;;;;;11.33;10.67;;;;;;;;5025304;28;9847;-77
2022/09/11 04:39:21;;;;;;;;;14.67;12.67;;;;;;;;5026524;28;9294;-78
2022/09/11 04:41:49;;;;;;;;;13.67;13.33;;;;;;;;5025713;28;9269;-78
2022/09/11 04:44:16;;;;;;;;;15.67;13.00;;;;;;;;5010220;28;9199;-78
2022/09/11 04:46:45;;;;;;;;;13.00;13.00;;;;;;;;5026919;28;9160;-78
2022/09/11 04:49:13;;;;;;;;;11.67;11.33;;;;;;;;5025450;28;9128;-78
2022/09/11 04:51:41;;;;;;;;;13.00;11.33;;;;;;;;5026171;28;9141;-78
2022/09/11 04:54:10;;;;;;;;;10.33;10.33;;;;;;;;5008135;28;9023;-77
2022/09/11 04:56:38;;;;;;;;;12.67;12.67;;;;;;;;5025753;28;9050;-77
2022/09/11 04:59:08;;;;;;;;;9.00;9.00;;;;;;;;5024710;28;9059;-77
2022/09/11 05:01:35;;;;;;;;;8.67;8.67;;;;;;;;5025423;28;8901;-77
2022/09/11 05:04:05;;;;;;;;;9.00;9.00;;;;;;;;5024079;28;8947;-77
2022/09/11 05:06:32;;;;;;;;;9.00;9.00;;;;;;;;5017584;28;8861;-77
2022/09/11 05:09:03;;;;;;;;;5.25;5.00;;;;;;;;5025713;28;8866;-78
2022/09/11 05:11:30;;;;;;;;;9.00;9.00;;;;;;;;5024689;28;8884;-78
2022/09/11 05:13:58;;;;;;;;;5.75;5.75;;;;;;;;5025825;28;8982;-77
2022/09/11 05:16:27;;;;;;;;;8.00;5.00;;;;;;;;5024900;28;9485;-78
2022/09/11 05:18:55;;;;;;;;;7.00;6.00;;;;;;;;5025512;28;8880;-78
2022/09/11 05:21:27;;;;;;;;;8.00;8.00;;;;;;;;5010235;28;8887;-77
2022/09/11 05:23:56;;;;;;;;;11.67;10.33;;;;;;;;5022382;28;9088;-77
2022/09/11 05:26:27;;;;;;;;;6.75;5.00;;;;;;;;5025503;28;10267;-77
2022/09/11 05:28:55;;;;;;;;;5.00;5.00;;;;;;;;5024460;28;8880;-78
2022/09/11 05:31:24;;;;;;;;;8.00;8.00;;;;;;;;5024774;28;9817;-78
2022/09/11 05:33:51;;;;;;;;;5.33;5.33;;;;;;;;5024125;28;9095;-77
2022/09/11 05:36:19;;;;;;;;;10.33;9.00;;;;;;;;5025038;28;9010;-78
2022/09/11 05:38:48;;;;;;;;;6.50;6.50;;;;;;;;5021536;28;8974;-77
2022/09/11 05:41:16;;;;;;;;;6.00;6.00;;;;;;;;5022673;28;9018;-77
2022/09/11 05:43:44;;;;;;;;;6.67;6.67;;;;;;;;5024582;28;8930;-77
2022/09/11 05:46:13;;;;;;;;;8.33;7.33;;;;;;;;5024458;28;9071;-77
2022/09/11 05:48:41;;;;;;;;;8.00;8.00;;;;;;;;5025063;28;8984;-77
2022/09/11 05:51:17;;;;;;;;;5.33;5.33;;;;;;;;5023833;28;9061;-77
2022/09/11 05:53:44;;;;;;;;;5.00;5.00;;;;;;;;5014244;28;9075;-78
2022/09/11 05:56:15;;;;;;;;;5.25;5.25;;;;;;;;5022244;28;8938;-77
2022/09/11 05:58:43;;;;;;;;;12.00;6.00;;;;;;;;5024260;28;8884;-76
2022/09/11 06:01:12;;;;;;;;;8.25;6.00;;;;;;;;5013291;28;8974;-78
2022/09/11 06:03:39;;;;;;;;;8.67;8.67;;;;;;;;5020284;28;8883;-79
2022/09/11 06:06:08;;;;;;;;;8.00;7.75;;;;;;;;5046224;28;8964;-77
2022/09/11 06:08:38;;;;;;;;;10.00;8.00;;;;;;;;5020862;28;8888;-79
2022/09/11 06:11:07;;;;;;;;;8.25;8.25;;;;;;;;5022981;28;9774;-77
2022/09/11 06:13:38;;;;;;;;;6.00;6.00;;;;;;;;5014142;28;8885;-78
2022/09/11 06:16:08;;;;;;;;;8.00;8.00;;;;;;;;5023717;28;8963;-79
2022/09/11 06:18:36;;;;;;;;;3.25;3.25;;;;;;;;5026419;28;8864;-78
2022/09/11 06:21:05;;;;;;;;;6.00;6.00;;;;;;;;5022451;28;8868;-77
2022/09/11 06:23:35;;;;;;;;;5.50;5.50;;;;;;;;5024314;28;9746;-77
2022/09/11 06:26:07;;;;;;;;;7.75;4.75;;;;;;;;5021968;28;8868;-76
2022/09/11 06:28:36;;;;;;;;;4.33;4.00;;;;;;;;5039232;28;8876;-76
2022/09/11 06:31:05;;;;;;;;;9.33;8.33;;;;;;;;5015628;28;8915;-77
2022/09/11 06:33:33;;;;;;;;;4.50;4.50;;;;;;;;5023128;28;9021;-78
2022/09/11 06:36:02;;;;;;;;;4.75;4.75;;;;;;;;5024135;28;8868;-77
2022/09/11 06:38:31;;;;;;;;;7.00;5.25;;;;;;;;5021840;28;8958;-77
2022/09/11 06:41:01;;;;;;;;;5.00;5.00;;;;;;;;5023389;28;8879;-77
2022/09/11 06:43:29;;;;;;;;;4.75;4.75;;;;;;;;5022150;28;9010;-78
2022/09/11 06:46:03;;;;;;;;;5.00;5.00;;;;;;;;5021619;28;8852;-79
2022/09/11 06:48:31;;;;;;;;;5.00;4.50;;;;;;;;5022118;28;8863;-80
2022/09/11 06:51:02;;;;;;;;;5.50;4.00;;;;;;;;5021089;28;8880;-78
2022/09/11 06:53:29;;;;;;;;;3.50;3.50;;;;;;;;5023026;28;8868;-79
2022/09/11 06:55:59;;;;;;;;;5.00;5.00;;;;;;;;5020476;28;9618;-78
2022/09/11 06:58:28;;;;;;;;;4.25;4.25;;;;;;;;5021957;28;8906;-79
2022/09/11 07:00:58;;;;;;;;;5.75;5.75;;;;;;;;5020338;28;8897;-79
2022/09/11 07:03:28;;;;;;;;;5.25;5.25;;;;;;;;5021340;28;8938;-79
2022/09/11 07:05:56;;;;;;;;;5.75;5.75;;;;;;;;5020578;28;8891;-77
2022/09/11 07:08:26;;;;;;;;;4.75;3.25;;;;;;;;5021617;28;8860;-78
2022/09/11 07:10:54;;;;;;;;;5.50;5.50;;;;;;;;5022822;28;8896;-78
2022/09/11 07:13:23;;;;;;;;;9.25;6.00;;;;;;;;5019161;28;8941;-77
2022/09/11 07:16:01;;;;;;;;;9.75;9.75;;;;;;;;5022378;28;8887;-75
2022/09/11 07:18:35;;;;;;;;;5.50;5.50;;;;;;;;5019816;28;8895;-78
2022/09/11 07:21:06;;;;;;;;;6.00;6.00;;;;;;;;5022105;28;8879;-78
2022/09/11 07:23:34;;;;;;;;;5.75;5.75;;;;;;;;5020300;28;8840;-78
2022/09/11 07:26:04;;;;;;;;;10.75;8.75;;;;;;;;5020961;28;8887;-80
2022/09/11 07:28:31;;;;;;;;;9.00;7.00;;;;;;;;5020644;28;8845;-78
2022/09/11 07:31:09;;;;;;;;;6.25;5.00;;;;;;;;5018207;28;8823;-78
2022/09/11 07:33:37;;;;;;;;;5.50;5.50;;;;;;;;5021045;28;8865;-78
2022/09/11 07:36:10;;;;;;;;;6.00;6.00;;;;;;;;5021713;28;9704;-78
2022/09/11 07:38:39;;;;;;;;;14.25;10.75;;;;;;;;5021250;28;8867;-78
2022/09/11 07:41:07;;;;;;;;;6.50;6.50;;;;;;;;5022235;28;8848;-78
2022/09/11 07:43:35;;;;;;;;;9.00;9.00;;;;;;;;5019369;28;8911;-78
2022/09/11 07:46:03;;;;;;;;;9.50;9.50;;;;;;;;5022749;28;8883;-79
2022/09/11 07:48:32;;;;;;;;;7.00;6.25;;;;;;;;5021721;28;8993;-78
2022/09/11 07:51:02;;;;;;;;;7.00;7.00;;;;;;;;5019514;28;8892;-79
2022/09/11 07:53:33;;;;;;;;;6.25;6.25;;;;;;;;5020478;28;9027;-79
2022/09/11 07:56:03;;;;;;;;;8.00;7.00;;;;;;;;5020994;28;8891;-79
2022/09/11 07:58:33;;;;;;;;;11.00;7.00;;;;;;;;5021052;28;8852;-78
2022/09/11 08:01:02;;;;;;;;;9.00;9.00;;;;;;;;5018129;28;8812;-80
2022/09/11 08:03:31;;;;;;;;;7.75;6.75;;;;;;;;5026214;28;8845;-77
2022/09/11 08:05:58;;;;;;;;;7.00;7.00;;;;;;;;5024995;28;8892;-77
2022/09/11 08:08:27;;;;;;;;;11.75;11.75;;;;;;;;5028183;28;8884;-77
2022/09/11 08:10:57;;;;;;;;;10.25;10.25;;;;;;;;5024139;28;8864;-75
2022/09/11 08:13:25;;;;;;;;;10.75;10.75;;;;;;;;5020768;28;8891;-76
2022/09/11 08:15:52;;;;;;;;;9.25;9.25;;;;;;;;5026150;28;8892;-76
2022/09/11 08:18:20;;;;;;;;;11.25;9.25;;;;;;;;5025293;28;8884;-81
2022/09/11 08:20:48;;;;;;;;;12.75;11.25;;;;;;;;5020014;28;8861;-74
2022/09/11 08:23:15;;;;;;;;;11.25;11.25;;;;;;;;5022275;28;8856;-74
2022/09/11 08:25:43;;;;;;;;;10.00;9.50;;;;;;;;5024364;28;9048;-75
2022/09/11 08:28:11;;;;;;;;;12.00;12.00;;;;;;;;5021815;28;8892;-74
2022/09/11 08:30:38;;;;;;;;;15.75;14.00;;;;;;;;5024970;28;8836;-74
2022/09/11 08:33:08;;;;;;;;;8.25;8.25;;;;;;;;5025863;28;8886;-73
2022/09/11 08:35:35;;;;;;;;;6.50;6.00;;;;;;;;5023313;28;9007;-75
2022/09/11 08:38:04;;;;;;;;;8.75;8.75;;;;;;;;5026610;28;8878;-74
2022/09/11 08:40:32;;;;;;;;;8.75;7.50;;;;;;;;5023734;28;8900;-74
2022/09/11 08:43:02;;;;;;;;;9.75;9.75;;;;;;;;5025789;28;8882;-75
2022/09/11 08:45:33;;;;;;;;;10.50;9.00;;;;;;;;5023979;28;8882;-75
2022/09/11 08:48:01;;;;;;;;;12.25;12.25;;;;;;;;5025710;28;9705;-75
2022/09/11 08:50:32;;;;;;;;;15.25;15.25;;;;;;;;5025003;28;8987;-74
2022/09/11 08:53:03;;;;;;;;;13.25;13.25;;;;;;;;5011658;28;8889;-75
2022/09/11 08:55:33;;;;;;;;;14.25;11.75;;;;;;;;5024966;28;8864;-76
2022/09/11 08:58:08;;;;;;;;;11.50;11.00;;;;;;;;5021643;28;8875;-77
2022/09/11 09:00:42;;;;;;;;;14.00;12.75;;;;;;;;5023552;28;8805;-73
2022/09/11 09:03:22;;;;;;;;;13.00;13.00;;;;;;;;5023099;28;8868;-76
2022/09/11 09:05:55;;;;;;;;;15.00;15.00;;;;;;;;5023554;28;8897;-73
2022/09/11 09:08:41;;;;;;;;;15.75;14.25;;;;;;;;5019334;28;8883;-76
2022/09/11 09:11:19;;;;;;;;;14.75;13.25;;;;;;;;5019708;28;8890;-75
2022/09/11 09:14:05;;;;;;;;;18.00;12.75;;;;;;;;5046497;28;8888;-73
2022/09/11 09:16:44;;;;;;;;;14.25;13.50;;;;;;;;5023181;28;8880;-73
2022/09/11 09:19:15;;;;;;;;;17.25;15.00;;;;;;;;5021489;28;9635;-74
2022/09/11 09:21:48;;;;;;;;;18.50;17.25;;;;;;;;5022508;28;8857;-74
2022/09/11 09:24:19;;;;;;;;;13.50;13.50;;;;;;;;5009936;28;8872;-75
2022/09/11 09:26:49;;;;;;;;;16.75;14.50;;;;;;;;5023476;28;9052;-74
2022/09/11 09:29:20;;;;;;;;;13.25;13.25;;;;;;;;5021826;28;8883;-73
2022/09/11 09:31:50;;;;;;;;;14.80;13.80;;;;;;;;5022831;28;8838;-75
2022/09/11 09:34:19;;;;;;;;;12.40;12.40;;;;;;;;5025343;28;9711;-74
2022/09/11 09:36:54;;;;;;;;;12.00;12.00;;;;;;;;5020149;28;8871;-72
2022/09/11 09:39:23;;;;;;;;;11.20;11.00;;;;;;;;5021537;28;8870;-73
2022/09/11 09:42:07;;;;;;;;;11.20;10.00;;;;;;;;5021802;28;8881;-71
2022/09/11 09:44:46;;;;;;;;;12.40;12.40;;;;;;;;5022468;28;9265;-72
2022/09/11 09:47:14;;;;;;;;;9.20;9.20;;;;;;;;5020668;28;8879;-73
2022/09/11 09:49:42;;;;;;;;;9.00;9.00;;;;;;;;5022743;28;9673;-73
2022/09/11 09:52:17;;;;;;;;;11.40;11.40;;;;;;;;5022311;28;8894;-73
2022/09/11 09:54:51;;;;;;;;;9.00;9.00;;;;;;;;5021473;28;8881;-73
2022/09/11 09:57:20;;;;;;;;;8.00;8.00;;;;;;;;5022856;28;8876;-73
2022/09/11 09:59:52;;;;;;;;;12.60;10.80;;;;;;;;5022134;28;8865;-73
2022/09/11 10:02:38;;;;;;;;;6.80;6.80;;;;;;;;5022092;28;9631;-73
2022/09/11 10:05:18;;;;;;;;;8.40;6.80;;;;;;;;5023027;28;8860;-74
2022/09/11 10:07:49;;;;;;;;;5.80;5.80;;;;;;;;5021941;28;8872;-72
2022/09/11 10:10:27;;;;;;;;;7.60;6.00;;;;;;;;5023280;28;8865;-74
2022/09/11 10:12:56;;;;;;;;;6.80;6.80;;;;;;;;5022609;28;9448;-75
2022/09/11 10:15:25;;;;;;;;;9.20;7.80;;;;;;;;5024440;28;8902;-74
2022/09/11 10:17:53;;;;;;;;;9.00;7.00;;;;;;;;5044752;28;8845;-75
2022/09/11 10:20:30;;;;;;;;;6.60;6.60;;;;;;;;5016657;28;9005;-74
2022/09/11 10:23:22;;;;;;;;;8.00;8.00;;;;;;;;5021652;28;8984;-75
2022/09/11 10:25:50;;;;;;;;;5.20;5.20;;;;;;;;5020223;28;8861;-74
2022/09/11 10:28:22;;;;;;;;;8.80;7.20;;;;;;;;5022624;28;8888;-74
2022/09/11 10:30:58;;;;;;;;;4.60;4.60;;;;;;;;5021651;28;8812;-76
2022/09/11 10:33:30;;;;;;;;;4.60;4.60;;;;;;;;5022855;28;8937;-75
2022/09/11 10:35:59;;;;;;;;;4.20;4.20;;;;;;;;5026267;28;8864;-75
2022/09/11 10:38:31;;;;;;;;;3.00;3.00;;;;;;;;5021457;28;8861;-78
2022/09/11 10:41:07;;;;;;;;;4.60;4.60;;;;;;;;5023488;28;9002;-77
2022/09/11 10:43:39;;;;;;;;;3.00;3.00;;;;;;;;5021590;28;8873;-76
2022/09/11 10:46:23;;;;;;;;;2.80;2.80;;;;;;;;5038464;28;9721;-75
2022/09/11 10:48:57;;;;;;;;;3.00;3.00;;;;;;;;5022188;28;9676;-75
2022/09/11 10:51:26;;;;;;;;;2.60;2.60;;;;;;;;5020557;28;9704;-75
2022/09/11 10:54:12;;;;;;;;;4.00;4.00;;;;;;;;5021926;28;8872;-74
2022/09/11 10:57:03;;;;;;;;;3.20;2.80;;;;;;;;5022139;28;8872;-74
2022/09/11 10:59:38;;;;;;;;;4.20;4.20;;;;;;;;5018176;28;8887;-74
2022/09/11 11:02:16;;;;;;;;;3.00;3.00;;;;;;;;5020940;28;8878;-74
2022/09/11 11:04:43;;;;;;;;;2.40;2.40;;;;;;;;5021215;28;9618;-72
2022/09/11 11:07:21;;;;;;;;;2.60;2.60;;;;;;;;5023420;28;8918;-75
2022/09/11 11:09:59;;;;;;;;;3.00;3.00;;;;;;;;5020768;28;8872;-74
2022/09/11 11:12:45;;;;;;;;;3.80;2.60;;;;;;;;5011938;28;8884;-74
2022/09/11 11:15:31;;;;;;;;;5.00;3.40;;;;;;;;5021972;28;9623;-82
2022/09/11 11:18:14;;;;;;;;;3.20;3.20;;;;;;;;5022552;28;8877;-77
2022/09/11 11:20:49;;;;;;;;;2.20;1.80;;;;;;;;5021751;28;8868;-77
2022/09/11 11:23:32;;;;;;;;;3.40;3.40;;;;;;;;5021923;28;8880;-78
2022/09/11 11:26:13;;;;;;;;;4.40;4.20;;;;;;;;5019276;28;8903;-75
2022/09/11 11:29:10;;;;;;;;;0.20;0.20;;;;;;;;5020281;28;8856;-77
2022/09/11 11:31:42;;;;;;;;;3.20;3.20;;;;;;;;5020472;28;8850;-72
2022/09/11 11:34:21;;;;;;;;;3.00;3.00;;;;;;;;5020744;28;8871;-72
2022/09/11 11:36:52;;;;;;;;;1.80;1.80;;;;;;;;5024354;28;8870;-74
2022/09/11 11:39:28;;;;;;;;;3.80;3.80;;;;;;;;5025985;28;8939;-75
2022/09/11 11:42:06;;;;;;;;;3.40;3.40;;;;;;;;5026306;28;8864;-75
2022/09/11 11:44:42;;;;;;;;;3.80;3.80;;;;;;;;5023288;28;8856;-73
2022/09/11 11:47:10;;;;;;;;;2.80;2.80;;;;;;;;5024769;28;8898;-72
2022/09/11 11:49:52;;;;;;;;;3.20;3.20;;;;;;;;5026831;28;8863;-73
2022/09/11 11:52:28;;;;;;;;;0.80;0.80;;;;;;;;5017385;28;8861;-73
2022/09/11 11:55:01;;;;;;;;;4.20;4.20;;;;;;;;5026957;28;8902;-75
2022/09/11 11:57:33;;;;;;;;;2.80;2.80;;;;;;;;5024838;28;8892;-75
2022/09/11 12:00:07;;;;;;;;;2.00;2.00;;;;;;;;5025990;28;8864;-76
2022/09/11 12:02:49;;;;;;;;;3.40;3.40;;;;;;;;5025234;28;8824;-80
2022/09/11 12:05:19;;;;;;;;;1.60;1.60;;;;;;;;5019565;28;8883;-78
2022/09/11 12:07:47;;;;;;;;;2.00;2.00;;;;;;;;5012357;28;8881;-73
2022/09/11 12:10:22;;;;;;;;;1.40;1.40;;;;;;;;5020914;28;8900;-73
2022/09/11 12:12:52;;;;;;;;;2.40;2.40;;;;;;;;5013611;28;8998;-76
2022/09/11 12:15:22;;;;;;;;;1.00;1.00;;;;;;;;5022795;28;8873;-76
2022/09/11 12:18:00;;;;;;;;;1.20;1.00;;;;;;;;5023678;28;8904;-73
2022/09/11 12:20:38;;;;;;;;;1.00;1.00;;;;;;;;5024100;28;9690;-74
2022/09/11 12:23:08;;;;;;;;;1.00;1.00;;;;;;;;5019438;28;8864;-74
2022/09/11 12:26:08;;;;;;;;;2.00;2.00;;;;;;;;5024506;28;9776;-72
2022/09/11 12:28:36;;;;;;;;;2.20;2.20;;;;;;;;5022065;28;8856;-76
2022/09/11 12:31:07;;;;;;;;;2.40;2.40;;;;;;;;5021720;28;8959;-73
2022/09/11 12:33:55;;;;;;;;;1.40;1.40;;;;;;;;5008099;28;8894;-77
2022/09/11 12:36:32;;;;;;;;;2.20;2.20;;;;;;;;5021700;28;8919;-76
2022/09/11 12:39:04;;;;;;;;;2.40;2.40;;;;;;;;5023355;28;8994;-74
2022/09/11 12:41:33;;;;;;;;;1.00;1.00;;;;;;;;5022856;28;8837;-75
2022/09/11 12:44:02;;;;;;;;;3.00;1.00;;;;;;;;5020531;28;8904;-77
2022/09/11 12:47:13;;;;;;;;;1.80;1.80;;;;;;;;5020343;28;8883;-77
2022/09/11 12:49:50;;;;;;;;;1.40;1.40;;;;;;;;5019070;28;8852;-75
2022/09/11 12:52:30;;;;;;;;;1.00;1.00;;;;;;;;5024029;28;8875;-74
2022/09/11 12:55:01;;;;;;;;;1.00;1.00;;;;;;;;5023217;28;8860;-74
2022/09/11 12:57:34;;;;;;;;;2.60;2.00;;;;;;;;5025578;28;8887;-81
2022/09/11 13:00:05;;;;;;;;;2.00;2.00;;;;;;;;5023442;28;8862;-76
2022/09/11 13:02:35;;;;;;;;;1.00;1.00;;;;;;;;5002396;28;8913;-78
2022/09/11 13:05:15;;;;;;;;;1.00;1.00;;;;;;;;5004445;28;8875;-80
2022/09/11 13:07:43;;;;;;;;;1.40;1.40;;;;;;;;5005424;28;8919;-79
2022/09/11 13:10:27;;;;;;;;;1.00;1.00;;;;;;;;4990449;28;8844;-76
2022/09/11 13:13:04;;;;;;;;;1.80;1.80;;;;;;;;5004914;28;8868;-77
2022/09/11 13:15:36;;;;;;;;;0.60;0.60;;;;;;;;4999085;28;8868;-79
2022/09/11 13:18:40;;;;;;;;;3.40;1.00;;;;;;;;5004444;28;8887;-76
2022/09/11 13:21:17;;;;;;;;;2.00;2.00;;;;;;;;4983491;28;8911;-78
2022/09/11 13:23:45;;;;;;;;;2.00;2.00;;;;;;;;5003688;28;8872;-76
2022/09/11 13:26:20;;;;;;;;;1.00;1.00;;;;;;;;5003961;28;8805;-75
2022/09/11 13:28:50;;;;;;;;;1.60;1.60;;;;;;;;5004773;28;8881;-77
2022/09/11 13:31:20;;;;;;;;;1.40;1.40;;;;;;;;5005009;28;9622;-73
2022/09/11 13:33:52;;;;;;;;;1.20;1.20;;;;;;;;5004727;28;8868;-74
2022/09/11 13:36:23;;;;;;;;;2.20;0.80;;;;;;;;5000656;28;8872;-73
2022/09/11 13:38:53;;;;;;;;;1.00;1.00;;;;;;;;5005010;28;8856;-75
2022/09/11 13:41:24;;;;;;;;;1.60;0.80;;;;;;;;5003145;28;8998;-74
2022/09/11 13:43:55;;;;;;;;;0.00;0.00;;;;;;;;5002100;28;8934;-78
2022/09/11 13:46:25;;;;;;;;;0.60;0.60;;;;;;;;5002415;28;9509;-75
2022/09/11 13:48:57;;;;;;;;;1.00;1.00;;;;;;;;5005516;28;8922;-73
2022/09/11 13:51:32;;;;;;;;;1.20;1.20;;;;;;;;5003262;28;8848;-74
2022/09/11 13:54:04;;;;;;;;;1.00;1.00;;;;;;;;5005240;28;8880;-74
2022/09/11 13:56:46;;;;;;;;;0.40;0.40;;;;;;;;4992003;28;8883;-74
2022/09/11 13:59:37;;;;;;;;;0.20;0.20;;;;;;;;5002089;28;8895;-75
2022/09/11 14:02:07;;;;;;;;;0.00;0.00;;;;;;;;4999739;28;8896;-75
2022/09/11 14:04:41;;;;;;;;;0.00;0.00;;;;;;;;5003950;28;8860;-74
2022/09/11 14:07:19;;;;;;;;;1.60;0.00;;;;;;;;5003409;28;8883;-75
2022/09/11 14:09:48;;;;;;;;;1.00;1.00;;;;;;;;5001220;28;8872;-75
2022/09/11 14:12:17;;;;;;;;;0.80;0.80;;;;;;;;5003145;28;8930;-76
2022/09/11 14:14:45;;;;;;;;;0.00;0.00;;;;;;;;5004721;28;8898;-74
2022/09/11 14:17:16;;;;;;;;;0.00;0.00;;;;;;;;5002930;28;8891;-76
2022/09/11 14:19:44;;;;;;;;;1.00;1.00;;;;;;;;5004158;28;8856;-74
2022/09/11 14:22:16;;;;;;;;;1.00;1.00;;;;;;;;5004027;28;8890;-76
2022/09/11 14:24:55;;;;;;;;;0.40;0.40;;;;;;;;5003799;28;8861;-75
2022/09/11 14:27:42;;;;;;;;;0.20;0.20;;;;;;;;5003567;28;8876;-75
2022/09/11 14:30:26;;;;;;;;;0.20;0.20;;;;;;;;4998248;28;8880;-75
2022/09/11 14:33:13;;;;;;;;;0.00;0.00;;;;;;;;5002603;28;8864;-73
2022/09/11 14:35:41;;;;;;;;;0.00;0.00;;;;;;;;5003550;28;8866;-74
2022/09/11 14:38:10;;;;;;;;;0.00;0.00;;;;;;;;5000425;28;8880;-75
2022/09/11 14:40:40;;;;;;;;;0.40;0.40;;;;;;;;4997760;28;9618;-75
2022/09/11 14:43:10;;;;;;;;;0.20;0.20;;;;;;;;5001085;28;8999;-76
2022/09/11 14:45:38;;;;;;;;;0.00;0.00;;;;;;;;5004004;28;8861;-77
2022/09/11 14:48:11;;;;;;;;;2.80;0.60;;;;;;;;5002565;28;8876;-75
2022/09/11 14:50:38;;;;;;;;;0.00;0.00;;;;;;;;5003294;28;8860;-79
2022/09/11 14:53:05;;;;;;;;;0.40;0.40;;;;;;;;5003942;28;8886;-73
2022/09/11 14:55:34;;;;;;;;;0.00;0.00;;;;;;;;5003312;28;8864;-77
2022/09/11 14:58:02;;;;;;;;;0.40;0.40;;;;;;;;5001209;28;8995;-75
2022/09/11 15:00:30;;;;;;;;;0.20;0.20;;;;;;;;4998679;28;8796;-74
2022/09/11 15:02:59;;;;;;;;;0.00;0.00;;;;;;;;5003653;28;8872;-73
2022/09/11 15:05:26;;;;;;;;;0.00;0.00;;;;;;;;4969658;28;8884;-75
2022/09/11 15:07:54;;;;;;;;;1.00;1.00;;;;;;;;5002094;28;8896;-70
2022/09/11 15:10:21;;;;;;;;;0.00;0.00;;;;;;;;5006242;28;8860;-72
2022/09/11 15:12:50;;;;;;;;;0.00;0.00;;;;;;;;5002355;28;8899;-75
2022/09/11 15:15:18;;;;;;;;;0.00;0.00;;;;;;;;5002383;28;9635;-76